createdAt,value
2022-08-17T00:02:25.917Z,16.33
2022-08-17T00:04:53.980Z,16.29
2022-08-17T00:07:20.502Z,16.23
2022-08-17T00:09:47.118Z,16.30
2022-08-17T00:12:34.866Z,16.25
2022-08-17T00:15:00.030Z,16.16
2022-08-17T00:17:26.775Z,16.18
2022-08-17T00:19:53.318Z,16.20
2022-08-17T00:22:35.299Z,16.19
2022-08-17T00:25:07.357Z,16.22
2022-08-17T00:27:34.691Z,16.13
2022-08-17T00:30:01.398Z,16.10
2022-08-17T00:33:16.083Z,16.12
2022-08-17T00:35:18.264Z,16.09
2022-08-17T00:37:44.838Z,16.05
2022-08-17T00:40:14.172Z,16.09
2022-08-17T00:42:42.116Z,16.11
2022-08-17T00:45:11.570Z,16.00
2022-08-17T00:47:38.199Z,15.99
2022-08-17T00:50:05.472Z,15.94
2022-08-17T00:52:37.389Z,15.84
2022-08-17T00:55:06.106Z,15.83
2022-08-17T00:57:42.391Z,15.84
2022-08-17T01:00:16.901Z,15.78
2022-08-17T01:02:47.623Z,15.87
2022-08-17T01:05:20.760Z,15.87
2022-08-17T01:07:50.615Z,15.74
2022-08-17T01:11:00.476Z,15.81
2022-08-17T01:13:10.680Z,15.76
2022-08-17T01:15:41.354Z,15.69
2022-08-17T01:18:13.609Z,15.65
2022-08-17T01:20:57.644Z,15.65
2022-08-17T01:23:26.006Z,15.59
2022-08-17T01:25:56.674Z,15.60
2022-08-17T01:28:53.170Z,15.59
2022-08-17T01:31:13.195Z,15.61
2022-08-17T01:33:39.589Z,15.53
2022-08-17T01:36:07.853Z,15.45
2022-08-17T01:38:36.454Z,15.40
2022-08-17T01:41:08.122Z,15.40
2022-08-17T01:43:43.520Z,15.35
2022-08-17T01:46:15.694Z,15.34
2022-08-17T01:48:42.992Z,15.35
2022-08-17T01:51:09.533Z,15.38
2022-08-17T01:53:42.273Z,15.36
2022-08-17T01:56:12.218Z,15.29
2022-08-17T01:58:41.594Z,15.32
2022-08-17T02:01:10.558Z,15.34
2022-08-17T02:03:38.534Z,15.30
2022-08-17T02:06:06.263Z,15.25
2022-08-17T02:09:01.539Z,15.20
2022-08-17T02:11:30.934Z,15.20
2022-08-17T02:14:03.202Z,15.12
2022-08-17T02:16:36.773Z,15.07
2022-08-17T02:19:12.130Z,15.08
2022-08-17T02:21:39.987Z,15.11
2022-08-17T02:24:13.399Z,15.06
2022-08-17T02:26:39.977Z,14.97
2022-08-17T02:29:07.261Z,14.96
2022-08-17T02:31:35.586Z,14.99
2022-08-17T02:34:03.659Z,14.97
2022-08-17T02:36:34.982Z,14.93
2022-08-17T02:39:04.704Z,14.93
2022-08-17T02:41:31.827Z,14.92
2022-08-17T02:43:58.666Z,14.88
2022-08-17T02:46:25.564Z,14.89
2022-08-17T02:48:52.216Z,14.88
2022-08-17T02:51:18.755Z,14.81
2022-08-17T02:53:45.297Z,14.82
2022-08-17T02:56:11.766Z,14.83
2022-08-17T02:58:38.457Z,14.86
2022-08-17T03:01:05.933Z,14.88
2022-08-17T03:03:33.145Z,14.84
2022-08-17T03:05:59.656Z,14.81
2022-08-17T03:08:27.221Z,14.87
2022-08-17T03:10:53.773Z,14.86
2022-08-17T03:13:20.673Z,14.80
2022-08-17T03:15:48.448Z,14.78
2022-08-17T03:18:24.158Z,14.80
2022-08-17T03:20:52.795Z,14.81
2022-08-17T03:23:23.829Z,14.75
2022-08-17T03:25:52.836Z,14.73
2022-08-17T03:28:19.688Z,14.67
2022-08-17T03:30:46.208Z,14.66
2022-08-17T03:33:13.724Z,14.63
2022-08-17T03:35:41.284Z,14.57
2022-08-17T03:38:10.520Z,14.61
2022-08-17T03:40:57.810Z,14.64
2022-08-17T03:43:25.398Z,14.53
2022-08-17T03:46:27.325Z,14.61
2022-08-17T03:49:14.527Z,14.57
2022-08-17T03:51:59.721Z,14.53
2022-08-17T03:54:44.958Z,14.54
2022-08-17T03:57:12.518Z,14.61
2022-08-17T03:59:39.226Z,14.63
2022-08-17T04:02:09.118Z,14.69
2022-08-17T04:04:37.009Z,14.70
2022-08-17T04:07:05.112Z,14.67
2022-08-17T04:09:31.815Z,14.66
2022-08-17T04:12:04.549Z,14.74
2022-08-17T04:14:36.690Z,14.82
2022-08-17T04:17:18.082Z,14.79
2022-08-17T04:19:44.964Z,14.80
2022-08-17T04:22:11.505Z,14.82
2022-08-17T04:24:58.747Z,14.94
2022-08-17T04:27:25.551Z,14.99
2022-08-17T04:29:54.754Z,15.16
2022-08-17T04:33:04.150Z,15.23
2022-08-17T04:35:10.103Z,15.38
2022-08-17T04:37:36.645Z,15.93
2022-08-17T04:40:22.623Z,16.59
2022-08-17T04:43:24.810Z,17.90
2022-08-17T04:45:57.752Z,18.45
2022-08-17T04:48:50.764Z,18.94
2022-08-17T04:51:23.361Z,18.84
2022-08-17T04:53:54.278Z,19.98
2022-08-17T04:56:23.240Z,19.03
2022-08-17T04:58:51.581Z,18.77
2022-08-17T05:01:23.563Z,19.40
2022-08-17T05:03:56.258Z,19.87
2022-08-17T05:06:23.620Z,20.77
2022-08-17T05:08:50.149Z,21.61
2022-08-17T05:11:16.555Z,21.78
2022-08-17T05:13:43.434Z,20.85
2022-08-17T05:16:10.683Z,21.51
2022-08-17T05:18:38.764Z,21.53
2022-08-17T05:21:05.831Z,22.20
2022-08-17T05:23:42.070Z,23.03
2022-08-17T05:26:26.225Z,23.35
2022-08-17T05:28:59.523Z,23.89
2022-08-17T05:31:28.719Z,24.44
2022-08-17T05:33:55.317Z,24.96
2022-08-17T05:36:37.920Z,25.41
2022-08-17T05:39:08.421Z,25.50
2022-08-17T05:41:42.375Z,27.23
2022-08-17T05:44:08.857Z,26.88
2022-08-17T05:46:41.726Z,26.89
2022-08-17T05:49:08.538Z,27.17
2022-08-17T05:51:50.202Z,27.56
2022-08-17T05:54:33.052Z,26.12
2022-08-17T05:57:26.919Z,27.27
2022-08-17T06:00:05.639Z,26.33
2022-08-17T06:03:00.396Z,24.64
2022-08-17T06:05:36.024Z,24.58
2022-08-17T06:08:25.879Z,24.21
2022-08-17T06:10:58.865Z,24.82
2022-08-17T06:13:56.151Z,22.62
2022-08-17T06:16:34.462Z,23.41
2022-08-17T06:19:14.151Z,24.72
2022-08-17T06:21:45.298Z,24.27
2022-08-17T06:24:47.044Z,25.64
2022-08-17T06:27:22.453Z,25.69
2022-08-17T06:30:09.104Z,26.60
2022-08-17T06:32:44.323Z,26.15
2022-08-17T06:35:15.286Z,25.01
2022-08-17T06:38:37.178Z,25.20
2022-08-17T06:41:15.188Z,25.27
2022-08-17T06:43:59.628Z,25.20
2022-08-17T06:46:37.736Z,25.56
2022-08-17T06:49:25.151Z,25.80
2022-08-17T06:52:02.255Z,25.65
2022-08-17T06:54:45.630Z,24.50
2022-08-17T06:57:22.160Z,24.76
2022-08-17T07:00:02.375Z,25.45
2022-08-17T07:03:01.122Z,25.76
2022-08-17T07:05:36.608Z,25.44
2022-08-17T07:08:20.374Z,24.48
2022-08-17T07:10:55.042Z,24.39
2022-08-17T07:13:44.581Z,24.73
2022-08-17T07:16:32.447Z,25.64
2022-08-17T07:18:59.825Z,25.15
2022-08-17T07:21:38.598Z,25.23
2022-08-17T07:24:45.088Z,25.77
2022-08-17T07:27:18.142Z,25.60
2022-08-17T07:29:56.547Z,25.37
2022-08-17T07:32:35.086Z,25.78
2022-08-17T07:35:11.642Z,25.95
2022-08-17T07:37:54.397Z,25.82
2022-08-17T07:40:28.565Z,25.46
2022-08-17T07:43:06.942Z,25.61
2022-08-17T07:45:54.017Z,25.52
2022-08-17T07:48:24.444Z,26.01
2022-08-17T07:50:53.175Z,25.98
2022-08-17T07:53:23.279Z,26.39
2022-08-17T07:55:51.778Z,26.94
2022-08-17T07:58:22.287Z,26.57
2022-08-17T08:01:09.564Z,27.16
2022-08-17T08:03:42.129Z,27.01
2022-08-17T08:06:24.472Z,26.73
2022-08-17T08:08:54.966Z,27.02
2022-08-17T08:11:40.151Z,26.84
2022-08-17T08:14:29.586Z,26.84
2022-08-17T08:17:04.823Z,27.25
2022-08-17T08:19:32.905Z,27.57
2022-08-17T08:22:10.791Z,27.24
2022-08-17T08:24:37.217Z,27.69
2022-08-17T08:27:30.438Z,27.76
2022-08-17T08:30:03.924Z,27.57
2022-08-17T08:32:47.970Z,27.58
2022-08-17T08:35:23.709Z,27.98
2022-08-17T08:38:12.354Z,28.86
2022-08-17T08:41:17.858Z,28.11
2022-08-17T08:44:22.061Z,27.62
2022-08-17T08:47:23.540Z,28.24
2022-08-17T08:50:40.318Z,28.20
2022-08-17T08:53:15.411Z,28.80
2022-08-17T08:56:00.934Z,29.13
2022-08-17T08:58:42.119Z,29.28
2022-08-17T09:01:45.225Z,29.70
2022-08-17T09:04:26.170Z,29.55
2022-08-17T09:07:23.065Z,29.71
2022-08-17T09:10:15.621Z,29.73
2022-08-17T09:12:51.641Z,29.60
2022-08-17T09:15:20.646Z,30.21
2022-08-17T09:18:28.526Z,29.67
2022-08-17T09:20:50.246Z,29.54
2022-08-17T09:23:33.144Z,30.09
2022-08-17T09:26:05.542Z,30.23
2022-08-17T09:28:37.844Z,29.95
2022-08-17T09:31:11.161Z,29.91
2022-08-17T09:33:44.228Z,30.07
2022-08-17T09:36:29.351Z,30.17
2022-08-17T09:39:02.058Z,29.84
2022-08-17T09:41:36.068Z,30.08
2022-08-17T09:44:14.019Z,30.52
2022-08-17T09:47:00.184Z,30.72
2022-08-17T09:49:30.692Z,30.51
2022-08-17T09:52:07.416Z,30.85
2022-08-17T09:54:39.308Z,31.06
2022-08-17T09:57:32.208Z,30.80
2022-08-17T10:00:10.820Z,31.08
2022-08-17T10:02:57.192Z,31.08
2022-08-17T10:05:37.715Z,30.94
2022-08-17T10:08:22.929Z,30.94
2022-08-17T10:11:18.936Z,31.24
2022-08-17T10:14:35.943Z,30.67
2022-08-17T10:17:20.481Z,31.48
2022-08-17T10:20:20.491Z,31.65
2022-08-17T10:23:09.966Z,31.22
2022-08-17T10:26:01.148Z,31.60
2022-08-17T10:28:39.470Z,31.61
2022-08-17T10:34:10.874Z,31.62
2022-08-17T10:36:55.947Z,31.73
2022-08-17T10:39:52.589Z,32.08
2022-08-17T10:42:42.632Z,31.84
2022-08-17T10:45:36.684Z,32.10
2022-08-17T10:48:07.086Z,32.41
2022-08-17T10:50:55.571Z,32.01
2022-08-17T10:53:31.103Z,31.58
2022-08-17T10:56:12.667Z,32.03
2022-08-17T10:58:55.951Z,32.01
2022-08-17T11:01:34.735Z,32.11
2022-08-17T11:04:17.589Z,31.75
2022-08-17T11:06:47.562Z,32.34
2022-08-17T11:09:44.769Z,31.89
2022-08-17T11:12:25.573Z,32.45
2022-08-17T11:15:00.901Z,32.53
2022-08-17T11:18:12.100Z,32.58
2022-08-17T11:21:09.806Z,32.46
2022-08-17T11:23:44.976Z,32.07
2022-08-17T11:26:26.806Z,32.17
2022-08-17T11:29:03.613Z,31.76
2022-08-17T11:31:39.156Z,32.07
2022-08-17T11:34:26.343Z,32.16
2022-08-17T11:37:02.064Z,32.22
2022-08-17T11:39:56.395Z,32.27
2022-08-17T11:42:58.117Z,32.45
2022-08-17T11:45:43.545Z,32.40
2022-08-17T11:48:43.598Z,32.74
2022-08-17T11:51:27.483Z,32.83
2022-08-17T11:54:08.738Z,32.71
2022-08-17T11:56:49.739Z,33.11
2022-08-17T11:59:39.195Z,33.08
2022-08-17T12:02:35.003Z,32.80
2022-08-17T12:05:03.626Z,33.13
2022-08-17T12:07:33.143Z,32.54
2022-08-17T12:10:01.058Z,32.57
2022-08-17T12:12:33.317Z,33.11
2022-08-17T12:15:11.002Z,32.99
2022-08-17T12:17:40.939Z,32.98
2022-08-17T12:20:14.726Z,33.30
2022-08-17T12:23:10.631Z,33.06
2022-08-17T12:26:11.783Z,32.83
2022-08-17T12:28:44.334Z,32.86
2022-08-17T12:31:23.157Z,32.49
2022-08-17T12:33:51.687Z,32.60
2022-08-17T12:36:24.780Z,32.58
2022-08-17T12:39:13.944Z,32.56
2022-08-17T12:41:46.888Z,32.82
2022-08-17T12:44:18.361Z,32.91
2022-08-17T12:46:53.347Z,32.66
2022-08-17T12:49:27.404Z,32.30
2022-08-17T12:52:01.364Z,32.63
2022-08-17T12:54:39.283Z,32.59
2022-08-17T12:57:12.579Z,31.97
2022-08-17T12:59:47.289Z,32.24
2022-08-17T13:02:27.629Z,32.24
2022-08-17T13:04:57.182Z,32.73
2022-08-17T13:07:44.729Z,32.25
2022-08-17T13:10:33.366Z,32.38
2022-08-17T13:13:05.912Z,32.38
2022-08-17T13:15:44.450Z,33.26
2022-08-17T13:18:36.243Z,34.07
2022-08-17T13:21:02.887Z,33.56
2022-08-17T13:23:31.331Z,33.05
2022-08-17T13:26:06.134Z,32.72
2022-08-17T13:28:36.586Z,32.26
2022-08-17T13:31:21.263Z,32.39
2022-08-17T13:33:47.845Z,32.56
2022-08-17T13:36:30.207Z,33.15
2022-08-17T13:39:23.037Z,33.15
2022-08-17T13:41:52.419Z,33.35
2022-08-17T13:44:37.659Z,33.24
2022-08-17T13:47:14.999Z,33.67
2022-08-17T13:49:48.925Z,33.63
2022-08-17T13:52:38.895Z,32.90
2022-08-17T13:55:18.946Z,33.63
2022-08-17T13:57:47.939Z,33.40
2022-08-17T14:00:36.307Z,33.36
2022-08-17T14:03:04.954Z,33.12
2022-08-17T14:05:32.011Z,33.02
2022-08-17T14:08:02.367Z,32.97
2022-08-17T14:10:35.823Z,32.21
2022-08-17T14:13:02.735Z,32.18
2022-08-17T14:15:54.644Z,32.01
2022-08-17T14:18:17.970Z,31.81
2022-08-17T14:21:02.247Z,31.79
2022-08-17T14:23:31.827Z,31.79
2022-08-17T14:25:58.449Z,31.59
2022-08-17T14:28:24.941Z,31.61
2022-08-17T14:30:55.427Z,31.65
2022-08-17T14:33:22.690Z,31.64
2022-08-17T14:35:53.472Z,31.71
2022-08-17T14:38:20.908Z,31.83
2022-08-17T14:40:49.151Z,31.43
2022-08-17T14:43:15.874Z,31.48
2022-08-17T14:45:43.281Z,31.17
2022-08-17T14:48:10.869Z,31.54
2022-08-17T14:50:41.048Z,31.84
2022-08-17T14:53:15.161Z,32.18
2022-08-17T14:55:42.030Z,32.25
2022-08-17T14:58:09.101Z,32.69
2022-08-17T15:00:36.287Z,33.13
2022-08-17T15:03:03.461Z,33.28
2022-08-17T15:05:34.461Z,33.59
2022-08-17T15:08:02.593Z,33.38
2022-08-17T15:10:30.624Z,33.11
2022-08-17T15:12:57.709Z,32.90
2022-08-17T15:15:25.005Z,32.65
2022-08-17T15:17:51.628Z,32.80
2022-08-17T15:20:24.798Z,32.48
2022-08-17T15:22:55.339Z,32.44
2022-08-17T15:25:22.677Z,31.87
2022-08-17T15:27:49.431Z,32.03
2022-08-17T15:30:16.376Z,32.25
2022-08-17T15:32:50.577Z,32.26
2022-08-17T15:35:19.366Z,32.11
2022-08-17T15:37:53.844Z,31.88
2022-08-17T15:40:20.407Z,31.95
2022-08-17T15:42:46.956Z,31.55
2022-08-17T15:45:14.215Z,31.63
2022-08-17T15:47:40.762Z,30.92
2022-08-17T15:50:08.727Z,31.01
2022-08-17T15:52:40.573Z,30.82
2022-08-17T15:55:12.028Z,30.91
2022-08-17T15:57:38.845Z,31.11
2022-08-17T16:00:07.766Z,30.80
2022-08-17T16:03:22.921Z,30.88
2022-08-17T16:05:28.507Z,30.83
2022-08-17T16:07:58.558Z,30.68
2022-08-17T16:10:35.425Z,30.89
2022-08-17T16:13:03.981Z,30.79
2022-08-17T16:15:33.549Z,30.77
2022-08-17T16:18:00.075Z,30.90
2022-08-17T16:20:27.604Z,30.58
2022-08-17T16:22:54.801Z,30.62
2022-08-17T16:25:49.205Z,30.51
2022-08-17T16:28:12.222Z,30.86
2022-08-17T16:30:38.920Z,30.98
2022-08-17T16:33:06.090Z,30.71
2022-08-17T16:35:33.492Z,30.68
2022-08-17T16:38:00.012Z,30.74
2022-08-17T16:40:29.531Z,30.93
2022-08-17T16:42:57.916Z,30.44
2022-08-17T16:45:36.264Z,30.62
2022-08-17T16:48:03.032Z,30.35
2022-08-17T16:50:29.568Z,30.17
2022-08-17T16:53:06.937Z,30.61
2022-08-17T16:55:35.630Z,30.35
2022-08-17T16:58:08.683Z,30.06
2022-08-17T17:00:36.554Z,30.09
2022-08-17T17:03:21.554Z,29.82
2022-08-17T17:05:55.091Z,29.96
2022-08-17T17:08:30.203Z,29.45
2022-08-17T17:10:59.725Z,29.33
2022-08-17T17:13:43.721Z,28.99
2022-08-17T17:16:21.831Z,29.03
2022-08-17T17:18:58.030Z,28.79
2022-08-17T17:21:32.790Z,28.94
2022-08-17T17:24:06.093Z,28.32
2022-08-17T17:26:43.962Z,28.02
2022-08-17T17:29:22.534Z,28.36
2022-08-17T17:32:09.362Z,27.82
2022-08-17T17:34:37.888Z,27.75
2022-08-17T17:37:14.775Z,27.79
2022-08-17T17:39:46.076Z,27.87
2022-08-17T17:42:17.449Z,27.91
2022-08-17T17:44:59.301Z,27.38
2022-08-17T17:47:26.672Z,27.30
2022-08-17T17:49:53.185Z,27.41
2022-08-17T17:52:47.871Z,27.34
2022-08-17T17:55:44.065Z,27.21
2022-08-17T17:58:38.516Z,27.23
2022-08-17T18:01:26.972Z,26.79
2022-08-17T18:04:17.689Z,26.98
2022-08-17T18:06:53.699Z,26.76
2022-08-17T18:09:51.844Z,26.94
2022-08-17T18:12:46.453Z,26.61
2022-08-17T18:15:29.878Z,26.53
2022-08-17T18:18:02.240Z,26.50
2022-08-17T18:20:32.465Z,26.41
2022-08-17T18:23:10.107Z,26.25
2022-08-17T18:25:44.807Z,26.33
2022-08-17T18:28:23.467Z,26.20
2022-08-17T18:31:10.449Z,26.01
2022-08-17T18:33:42.687Z,26.23
2022-08-17T18:36:11.368Z,26.25
2022-08-17T18:38:37.900Z,25.76
2022-08-17T18:41:18.091Z,25.64
2022-08-17T18:43:57.206Z,25.67
2022-08-17T18:46:36.495Z,25.61
2022-08-17T18:49:26.011Z,25.62
2022-08-17T18:52:15.872Z,25.68
2022-08-17T18:55:14.188Z,25.69
2022-08-17T18:57:44.202Z,25.60
2022-08-17T19:00:16.941Z,25.54
2022-08-17T19:03:22.806Z,25.21
2022-08-17T19:05:54.350Z,25.81
2022-08-17T19:08:32.613Z,25.22
2022-08-17T19:11:04.262Z,25.11
2022-08-17T19:13:51.439Z,25.31
2022-08-17T19:16:41.805Z,25.17
2022-08-17T19:19:23.260Z,24.93
2022-08-17T19:21:55.381Z,24.70
2022-08-17T19:24:24.929Z,24.94
2022-08-17T19:27:13.734Z,24.82
2022-08-17T19:29:46.531Z,24.93
2022-08-17T19:32:16.666Z,24.88
2022-08-17T19:34:44.626Z,24.69
2022-08-17T19:37:20.911Z,24.97
2022-08-17T19:40:06.226Z,24.76
2022-08-17T19:42:51.550Z,24.49
2022-08-17T19:45:42.127Z,24.75
2022-08-17T19:48:16.521Z,24.48
2022-08-17T19:51:06.185Z,24.71
2022-08-17T19:54:07.297Z,24.49
2022-08-17T19:57:09.075Z,24.54
2022-08-17T19:59:49.364Z,24.64
2022-08-17T20:02:34.854Z,24.34
2022-08-17T20:05:13.432Z,24.33
2022-08-17T20:08:05.096Z,24.39
2022-08-17T20:10:54.378Z,24.41
2022-08-17T20:13:38.651Z,24.31
2022-08-17T20:16:06.383Z,24.65
2022-08-17T20:18:44.059Z,24.23
2022-08-17T20:21:30.597Z,24.18
2022-08-17T20:24:05.409Z,24.49
2022-08-17T20:26:57.870Z,24.31
2022-08-17T20:30:10.365Z,24.22
2022-08-17T20:32:51.819Z,24.40
2022-08-17T20:35:37.272Z,24.10
2022-08-17T20:38:07.415Z,24.00
2022-08-17T20:40:38.932Z,24.11
2022-08-17T20:43:33.739Z,24.22
2022-08-17T20:46:17.096Z,24.08
2022-08-17T20:48:47.242Z,24.34
2022-08-17T20:51:19.083Z,24.22
2022-08-17T20:53:53.482Z,24.05
2022-08-17T20:56:44.755Z,23.99
2022-08-17T20:59:25.439Z,24.08
2022-08-17T21:02:17.594Z,23.94
2022-08-17T21:04:51.303Z,23.91
2022-08-17T21:07:43.580Z,23.94
2022-08-17T21:10:17.887Z,23.98
2022-08-17T21:12:48.486Z,24.08
2022-08-17T21:15:31.033Z,24.23
2022-08-17T21:18:11.899Z,24.00
2022-08-17T21:20:59.278Z,24.00
2022-08-17T21:23:56.096Z,23.85
2022-08-17T21:27:10.421Z,23.94
2022-08-17T21:30:11.787Z,23.82
2022-08-17T21:32:42.106Z,23.75
2022-08-17T21:35:23.586Z,23.74
2022-08-17T21:37:53.256Z,23.73
2022-08-17T21:40:29.056Z,23.67
2022-08-17T21:43:23.765Z,23.69
2022-08-17T21:46:12.363Z,23.74
2022-08-17T21:48:48.063Z,23.69
2022-08-17T21:51:22.761Z,23.63
2022-08-17T21:53:53.145Z,23.63
2022-08-17T21:56:24.525Z,23.67
2022-08-17T21:58:59.386Z,23.60
2022-08-17T22:02:55.666Z,23.32
2022-08-17T22:05:31.535Z,23.25
2022-08-17T22:08:04.028Z,23.15
2022-08-17T22:10:41.318Z,23.14
2022-08-17T22:13:17.103Z,23.09
2022-08-17T22:16:27.931Z,23.13
2022-08-17T22:18:57.944Z,23.21
2022-08-17T22:21:25.255Z,23.34
2022-08-17T22:24:15.801Z,22.91
2022-08-17T22:26:59.477Z,22.73
2022-08-17T22:30:05.058Z,22.59
2022-08-17T22:32:34.427Z,22.72
2022-08-17T22:35:18.612Z,22.70
2022-08-17T22:37:45.338Z,22.78
2022-08-17T22:40:24.953Z,22.89
2022-08-17T22:42:51.765Z,22.79
2022-08-17T22:45:18.464Z,22.75
2022-08-17T22:47:48.836Z,22.65
2022-08-17T22:50:25.785Z,22.50
2022-08-17T22:53:35.477Z,22.32
2022-08-17T22:56:21.039Z,22.28
2022-08-17T22:59:15.432Z,22.08
2022-08-17T23:01:45.237Z,22.18
2022-08-17T23:04:31.967Z,21.91
2022-08-17T23:06:58.453Z,21.77
2022-08-17T23:09:24.945Z,21.71
2022-08-17T23:11:56.458Z,21.53
2022-08-17T23:14:23.114Z,21.56
2022-08-17T23:16:50.963Z,21.46
2022-08-17T23:19:20.811Z,21.02
2022-08-17T23:21:49.125Z,21.03
2022-08-17T23:24:21.605Z,20.56
2022-08-17T23:26:48.315Z,20.48
2022-08-17T23:29:14.883Z,20.49
2022-08-17T23:31:41.520Z,20.15
2022-08-17T23:34:13.499Z,20.11
2022-08-17T23:36:40.354Z,19.87
2022-08-17T23:39:07.472Z,19.96
2022-08-17T23:41:39.883Z,19.58
2022-08-17T23:44:07.536Z,19.50
2022-08-17T23:46:34.733Z,19.28
2022-08-17T23:49:01.502Z,19.24
2022-08-17T23:51:33.430Z,19.41
2022-08-17T23:54:12.477Z,19.22
2022-08-17T23:56:46.602Z,19.15
2022-08-17T23:59:22.495Z,19.15
